createdAt,value
2022-08-07T00:02:45.236Z,0.8
2022-08-07T00:07:41.834Z,0.8
2022-08-07T00:12:57.646Z,0.8
2022-08-07T00:23:39.505Z,0.8
2022-08-07T00:28:10.629Z,0.8
2022-08-07T00:32:59.662Z,0.8
2022-08-07T00:42:40.658Z,0.8
2022-08-07T00:48:10.051Z,0.8
2022-08-07T00:52:47.216Z,0.8
2022-08-07T00:57:44.484Z,0.8
2022-08-07T01:02:41.363Z,0.8
2022-08-07T01:07:40.315Z,0.8
2022-08-07T01:12:43.986Z,0.8
2022-08-07T01:22:58.418Z,0.8
2022-08-07T01:32:43.341Z,0.9
2022-08-07T01:37:43.326Z,1
2022-08-07T01:42:57.704Z,0.9
2022-08-07T01:48:17.589Z,1
2022-08-07T01:58:01.716Z,0.9
2022-08-07T02:07:50.708Z,0.9
2022-08-07T02:12:50.010Z,0.8
2022-08-07T02:17:49.268Z,0.9
2022-08-07T02:22:44.370Z,0.9
2022-08-07T02:27:51.158Z,0.9
2022-08-07T02:37:44.411Z,1.1
2022-08-07T02:42:45.887Z,1.1
2022-08-07T02:47:49.348Z,1.1
2022-08-07T02:53:06.103Z,1.1
2022-08-07T02:57:40.357Z,1.2
2022-08-07T03:02:54.224Z,1.2
2022-08-07T03:08:04.760Z,1.2
2022-08-07T03:22:50.936Z,1.2
2022-08-07T03:27:58.990Z,1.2
2022-08-07T03:37:53.422Z,1.2
2022-08-07T03:42:44.666Z,1.2
2022-08-07T03:47:51.340Z,1.3
2022-08-07T03:52:46.509Z,1.3
2022-08-07T03:58:32.794Z,1.4
2022-08-07T04:02:47.697Z,1.4
2022-08-07T04:07:48.840Z,1.4
2022-08-07T04:12:47.229Z,1.4
2022-08-07T04:18:11.309Z,1.5
2022-08-07T04:22:53.292Z,1.5
2022-08-07T04:27:59.065Z,1.4
2022-08-07T04:32:48.666Z,1.4
2022-08-07T04:37:52.989Z,1.4
2022-08-07T04:42:51.663Z,1.4
2022-08-07T04:47:57.511Z,1.6
2022-08-07T04:52:51.095Z,1.5
2022-08-07T04:58:18.093Z,1.5
2022-08-07T05:02:48.663Z,1.6
2022-08-07T05:07:51.443Z,1.6
2022-08-07T05:12:53.592Z,1.6
2022-08-07T05:17:56.432Z,1.6
2022-08-07T05:22:51.075Z,1.7
2022-08-07T05:28:03.630Z,1.7
2022-08-07T05:32:50.123Z,1.7
2022-08-07T05:38:08.562Z,1.7
2022-08-07T05:42:56.542Z,1.7
2022-08-07T05:48:00.435Z,1.7
2022-08-07T05:54:08.830Z,1.7
2022-08-07T05:57:56.219Z,1.7
2022-08-07T06:02:50.133Z,1.8
2022-08-07T06:08:05.281Z,1.8
2022-08-07T06:12:50.123Z,1.8
2022-08-07T06:17:56.177Z,1.8
2022-08-07T06:23:01.953Z,1.8
2022-08-07T06:28:00.262Z,1.6
2022-08-07T06:32:51.102Z,1.5
2022-08-07T06:37:57.672Z,1.4
2022-08-07T06:42:51.142Z,1.4
2022-08-07T06:47:57.152Z,1.4
2022-08-07T06:52:53.497Z,1.4
2022-08-07T06:57:57.514Z,1.3
2022-08-07T07:02:57.405Z,1.1
2022-08-07T07:07:58.894Z,1.3
2022-08-07T07:12:54.093Z,1.3
2022-08-07T07:17:58.188Z,1.1
2022-08-07T07:28:01.979Z,1.1
2022-08-07T07:32:55.163Z,1.1
2022-08-07T07:37:59.555Z,1.1
2022-08-07T07:42:56.162Z,1.1
2022-08-07T07:47:55.338Z,1.2
2022-08-07T07:52:56.175Z,1.2
2022-08-07T07:57:58.612Z,1
2022-08-07T08:03:01.416Z,1
2022-08-07T08:08:00.115Z,1
2022-08-07T08:17:58.752Z,1
2022-08-07T08:22:58.283Z,0.9
2022-08-07T08:28:02.065Z,0.9
2022-08-07T08:32:52.147Z,0.9
2022-08-07T08:37:59.968Z,0.9
2022-08-07T08:42:53.161Z,0.8
2022-08-07T08:47:56.167Z,0.8
2022-08-07T08:53:01.889Z,0.9
2022-08-07T08:57:53.182Z,0.9
2022-08-07T09:02:58.261Z,0.9
2022-08-07T09:12:56.222Z,0.8
2022-08-07T09:17:58.838Z,0.8
2022-08-07T09:24:29.964Z,0.8
2022-08-07T09:28:00.871Z,0.7
2022-08-07T09:32:52.193Z,0.7
2022-08-07T09:37:55.215Z,0.7
2022-08-07T09:48:00.992Z,0.7
2022-08-07T09:52:54.432Z,0.7
2022-08-07T09:57:53.156Z,0.7
2022-08-07T10:02:56.473Z,0.7
2022-08-07T10:07:56.702Z,0.7
2022-08-07T10:12:57.671Z,0.8
2022-08-07T10:18:00.499Z,0.7
2022-08-07T10:22:52.154Z,0.6
2022-08-07T10:27:56.204Z,0.8
2022-08-07T10:32:59.554Z,0.6
2022-08-07T10:38:00.770Z,0.6
2022-08-07T10:42:53.162Z,0.6
2022-08-07T10:48:02.838Z,0.6
2022-08-07T10:52:56.290Z,0.6
2022-08-07T10:57:58.296Z,0.7
2022-08-07T11:08:00.751Z,0.7
2022-08-07T11:13:01.529Z,0.7
2022-08-07T11:17:55.231Z,0.6
2022-08-07T11:22:53.182Z,0.6
2022-08-07T11:28:02.159Z,0.6
2022-08-07T11:32:58.220Z,0.5
2022-08-07T11:38:10.629Z,0.5
2022-08-07T11:42:52.255Z,0.5
2022-08-07T11:47:59.268Z,0.5
2022-08-07T11:52:55.906Z,0.5
2022-08-07T11:58:02.563Z,0.4
2022-08-07T12:02:56.274Z,0.4
2022-08-07T12:08:03.917Z,0.4
2022-08-07T12:12:56.197Z,0.4
2022-08-07T12:18:01.027Z,0.4
2022-08-07T12:22:59.272Z,0.4
2022-08-07T12:28:04.172Z,0.3
2022-08-07T12:32:56.274Z,0.3
2022-08-07T12:38:10.481Z,0.3
2022-08-07T12:42:59.260Z,0.3
2022-08-07T12:47:57.214Z,0.3
2022-08-07T12:52:56.263Z,0.2
2022-08-07T12:58:02.713Z,0.2
2022-08-07T13:02:57.274Z,0.2
2022-08-07T13:08:13.113Z,0.2
2022-08-07T13:12:59.550Z,0.2
2022-08-07T13:18:00.254Z,0.2
2022-08-07T13:22:56.303Z,0.2
2022-08-07T13:28:06.103Z,0.2
2022-08-07T13:32:56.261Z,0.2
2022-08-07T13:38:02.740Z,0.2
2022-08-07T13:42:56.261Z,0.3
2022-08-07T13:48:04.228Z,0.3
2022-08-07T13:53:05.649Z,0.4
2022-08-07T13:58:03.639Z,0.3
2022-08-07T14:02:56.300Z,0.4
2022-08-07T14:08:02.286Z,0.4
2022-08-07T14:12:57.318Z,0.4
2022-08-07T14:18:13.313Z,0.4
2022-08-07T14:22:57.331Z,0.4
2022-08-07T14:28:12.023Z,0.4
2022-08-07T14:32:56.321Z,0.4
2022-08-07T14:38:03.475Z,0.4
2022-08-07T14:47:59.452Z,0.5
2022-08-07T14:53:06.489Z,0.5
2022-08-07T14:58:00.486Z,0.4
2022-08-07T15:02:59.353Z,0.4
2022-08-07T15:07:59.639Z,0.4
2022-08-07T15:12:59.325Z,0.4
2022-08-07T15:17:57.311Z,0.4
2022-08-07T15:22:56.331Z,0.4
2022-08-07T15:28:31.126Z,0.4
2022-08-07T15:33:03.781Z,0.8
2022-08-07T15:38:05.062Z,0.8
2022-08-07T15:42:57.342Z,1
2022-08-07T15:48:02.550Z,1
2022-08-07T15:53:09.475Z,1
2022-08-07T15:58:00.282Z,1
2022-08-07T16:03:00.322Z,0.8
2022-08-07T16:08:28.777Z,0.5
2022-08-07T16:13:05.620Z,0.5
2022-08-07T16:18:03.783Z,0.5
2022-08-07T16:23:09.573Z,0.4
2022-08-07T16:27:59.358Z,0.4
2022-08-07T16:32:56.400Z,0.4
2022-08-07T16:38:04.982Z,0.4
2022-08-07T16:42:56.348Z,0.4
2022-08-07T16:53:10.064Z,0.5
2022-08-07T16:58:03.864Z,0.5
2022-08-07T17:03:04.752Z,0.5
2022-08-07T17:08:00.329Z,0.4
2022-08-07T17:13:03.527Z,0.5
2022-08-07T17:17:59.379Z,0.5
2022-08-07T17:22:59.431Z,0.6
2022-08-07T17:27:58.341Z,0.6
2022-08-07T17:33:00.357Z,0.7
2022-08-07T17:38:07.333Z,0.7
2022-08-07T17:43:02.426Z,0.7
2022-08-07T17:47:57.385Z,0.8
2022-08-07T17:53:59.526Z,0.8
2022-08-07T17:58:02.515Z,0.8
2022-08-07T18:02:59.491Z,0.8
2022-08-07T18:07:56.343Z,0.7
2022-08-07T18:12:59.392Z,0.8
2022-08-07T18:18:36.752Z,0.8
2022-08-07T18:23:04.618Z,0.8
2022-08-07T18:27:58.788Z,0.8
2022-08-07T18:33:10.665Z,0.9
2022-08-07T18:38:54.269Z,0.8
2022-08-07T18:42:58.846Z,0.8
2022-08-07T18:48:04.828Z,0.8
2022-08-07T18:58:06.097Z,0.9
2022-08-07T19:02:58.915Z,0.9
2022-08-07T19:08:03.885Z,0.9
2022-08-07T19:13:10.018Z,1.6
2022-08-07T19:18:05.403Z,1.6
2022-08-07T19:23:04.891Z,1.6
2022-08-07T19:28:31.239Z,1.6
2022-08-07T19:33:08.408Z,1.3
2022-08-07T19:37:59.861Z,1.3
2022-08-07T19:42:59.904Z,1
2022-08-07T19:47:58.835Z,1
2022-08-07T19:54:30.518Z,1
2022-08-07T19:58:12.535Z,0.9
2022-08-07T20:03:02.076Z,1
2022-08-07T20:07:59.845Z,1
2022-08-07T20:13:05.984Z,1
2022-08-07T20:23:11.107Z,1.4
2022-08-07T20:28:05.126Z,1.8
2022-08-07T20:33:04.016Z,1.4
2022-08-07T20:38:03.281Z,1.2
2022-08-07T20:43:03.322Z,1
2022-08-07T20:48:04.726Z,1
2022-08-07T20:58:09.109Z,0.9
2022-08-07T21:03:01.054Z,0.9
2022-08-07T21:07:58.930Z,0.9
2022-08-07T21:12:58.858Z,0.9
2022-08-07T21:18:09.058Z,0.9
2022-08-07T21:22:58.859Z,0.9
2022-08-07T21:28:02.887Z,0.9
2022-08-07T21:33:01.889Z,0.9
2022-08-07T21:38:01.936Z,0.9
2022-08-07T21:42:58.840Z,0.9
2022-08-07T21:47:58.883Z,1.1
2022-08-07T21:52:58.867Z,1.1
2022-08-07T21:57:58.911Z,1
2022-08-07T22:02:59.863Z,1.2
2022-08-07T22:08:04.900Z,1.3
2022-08-07T22:12:58.859Z,1.3
2022-08-07T22:17:59.946Z,1.3
2022-08-07T22:23:01.936Z,1.1
2022-08-07T22:28:08.464Z,1.1
2022-08-07T22:32:58.912Z,1.1
2022-08-07T22:38:05.457Z,1.1
2022-08-07T22:43:02.948Z,1.1
2022-08-07T22:48:01.923Z,1.1
2022-08-07T22:52:59.943Z,1.1
2022-08-07T22:58:01.886Z,1.1
2022-08-07T23:03:03.499Z,1.2
2022-08-07T23:07:58.875Z,1.2
2022-08-07T23:13:01.910Z,1.2
2022-08-07T23:17:58.906Z,1.2
2022-08-07T23:22:58.976Z,1.2
2022-08-07T23:28:20.759Z,1.2
2022-08-07T23:34:24.820Z,1.2
2022-08-07T23:38:04.927Z,1.2
2022-08-07T23:42:58.916Z,1.2
2022-08-07T23:48:04.937Z,1.2
2022-08-07T23:53:06.939Z,1.2
2022-08-07T23:57:59.904Z,1.2
